sensor_id;sensor_type;location;lat;lon;timestamp;temperature;humidity
48416;DHT22;34227;51.840;4.146;2023-07-20T00:01:11;19.50;80.50
48416;DHT22;34227;51.840;4.146;2023-07-20T00:03:37;19.50;80.80
48416;DHT22;34227;51.840;4.146;2023-07-20T00:06:03;19.50;80.80
48416;DHT22;34227;51.840;4.146;2023-07-20T00:08:29;19.50;80.70
48416;DHT22;34227;51.840;4.146;2023-07-20T00:10:55;19.50;80.90
48416;DHT22;34227;51.840;4.146;2023-07-20T00:13:20;19.40;80.80
48416;DHT22;34227;51.840;4.146;2023-07-20T00:15:46;19.40;80.90
48416;DHT22;34227;51.840;4.146;2023-07-20T00:18:12;19.40;81.30
48416;DHT22;34227;51.840;4.146;2023-07-20T00:20:37;19.30;81.30
48416;DHT22;34227;51.840;4.146;2023-07-20T00:23:03;19.30;81.80
48416;DHT22;34227;51.840;4.146;2023-07-20T00:25:29;19.30;82.40
48416;DHT22;34227;51.840;4.146;2023-07-20T00:27:54;19.30;81.80
48416;DHT22;34227;51.840;4.146;2023-07-20T00:30:22;19.30;82.00
48416;DHT22;34227;51.840;4.146;2023-07-20T00:32:54;19.30;81.80
48416;DHT22;34227;51.840;4.146;2023-07-20T00:35:23;19.20;81.80
48416;DHT22;34227;51.840;4.146;2023-07-20T00:37:49;19.20;81.90
48416;DHT22;34227;51.840;4.146;2023-07-20T00:40:14;19.20;81.80
48416;DHT22;34227;51.840;4.146;2023-07-20T00:42:40;19.10;81.70
48416;DHT22;34227;51.840;4.146;2023-07-20T00:45:06;19.10;81.60
48416;DHT22;34227;51.840;4.146;2023-07-20T00:47:31;19.10;81.70
48416;DHT22;34227;51.840;4.146;2023-07-20T00:49:57;19.10;81.60
48416;DHT22;34227;51.840;4.146;2023-07-20T00:52:26;19.00;81.70
48416;DHT22;34227;51.840;4.146;2023-07-20T00:54:52;19.00;81.90
48416;DHT22;34227;51.840;4.146;2023-07-20T00:57:21;19.00;81.90
48416;DHT22;34227;51.840;4.146;2023-07-20T00:59:51;19.00;81.90
48416;DHT22;34227;51.840;4.146;2023-07-20T01:02:17;19.00;81.80
48416;DHT22;34227;51.840;4.146;2023-07-20T01:04:42;18.90;81.80
48416;DHT22;34227;51.840;4.146;2023-07-20T01:07:10;18.90;82.80
48416;DHT22;34227;51.840;4.146;2023-07-20T01:09:45;18.90;82.00
48416;DHT22;34227;51.840;4.146;2023-07-20T01:12:18;18.80;81.90
48416;DHT22;34227;51.840;4.146;2023-07-20T01:14:48;18.80;82.20
48416;DHT22;34227;51.840;4.146;2023-07-20T01:17:14;18.80;82.10
48416;DHT22;34227;51.840;4.146;2023-07-20T01:19:39;18.70;81.90
48416;DHT22;34227;51.840;4.146;2023-07-20T01:30:14;18.60;81.70
48416;DHT22;34227;51.840;4.146;2023-07-20T01:32:42;18.60;81.70
48416;DHT22;34227;51.840;4.146;2023-07-20T01:35:08;18.60;81.80
48416;DHT22;34227;51.840;4.146;2023-07-20T01:37:35;18.50;81.70
48416;DHT22;34227;51.840;4.146;2023-07-20T01:40:01;18.50;81.60
48416;DHT22;34227;51.840;4.146;2023-07-20T01:42:26;18.50;81.70
48416;DHT22;34227;51.840;4.146;2023-07-20T01:44:52;18.50;81.90
48416;DHT22;34227;51.840;4.146;2023-07-20T01:47:18;18.40;81.60
48416;DHT22;34227;51.840;4.146;2023-07-20T01:49:44;18.40;81.70
48416;DHT22;34227;51.840;4.146;2023-07-20T01:52:10;18.30;81.70
48416;DHT22;34227;51.840;4.146;2023-07-20T01:54:35;18.30;81.70
48416;DHT22;34227;51.840;4.146;2023-07-20T01:57:01;18.30;81.70
48416;DHT22;34227;51.840;4.146;2023-07-20T01:59:27;18.30;81.80
48416;DHT22;34227;51.840;4.146;2023-07-20T02:01:52;18.20;81.80
48416;DHT22;34227;51.840;4.146;2023-07-20T02:04:18;18.10;81.80
48416;DHT22;34227;51.840;4.146;2023-07-20T02:06:43;18.20;81.90
48416;DHT22;34227;51.840;4.146;2023-07-20T02:09:09;18.10;82.00
48416;DHT22;34227;51.840;4.146;2023-07-20T02:11:34;18.10;82.90
48416;DHT22;34227;51.840;4.146;2023-07-20T02:14:00;18.00;82.10
48416;DHT22;34227;51.840;4.146;2023-07-20T02:16:25;18.00;82.00
48416;DHT22;34227;51.840;4.146;2023-07-20T02:18:51;18.00;82.10
48416;DHT22;34227;51.840;4.146;2023-07-20T02:21:17;17.90;82.20
48416;DHT22;34227;51.840;4.146;2023-07-20T02:23:43;17.90;82.30
48416;DHT22;34227;51.840;4.146;2023-07-20T02:26:08;17.80;82.30
48416;DHT22;34227;51.840;4.146;2023-07-20T02:28:34;17.90;82.40
48416;DHT22;34227;51.840;4.146;2023-07-20T02:30:59;17.90;82.30
48416;DHT22;34227;51.840;4.146;2023-07-20T02:33:26;17.80;82.40
48416;DHT22;34227;51.840;4.146;2023-07-20T02:35:51;17.90;82.30
48416;DHT22;34227;51.840;4.146;2023-07-20T02:38:17;17.80;82.40
48416;DHT22;34227;51.840;4.146;2023-07-20T02:40:43;17.80;82.40
48416;DHT22;34227;51.840;4.146;2023-07-20T02:43:08;17.70;82.50
48416;DHT22;34227;51.840;4.146;2023-07-20T02:45:35;17.70;82.40
48416;DHT22;34227;51.840;4.146;2023-07-20T02:48:00;17.70;82.40
48416;DHT22;34227;51.840;4.146;2023-07-20T02:50:26;17.70;82.60
48416;DHT22;34227;51.840;4.146;2023-07-20T02:52:51;17.70;82.70
48416;DHT22;34227;51.840;4.146;2023-07-20T02:55:17;17.60;83.00
48416;DHT22;34227;51.840;4.146;2023-07-20T02:57:43;17.60;82.90
48416;DHT22;34227;51.840;4.146;2023-07-20T03:00:08;17.50;82.70
48416;DHT22;34227;51.840;4.146;2023-07-20T03:02:34;17.50;82.70
48416;DHT22;34227;51.840;4.146;2023-07-20T03:05:00;17.50;82.90
48416;DHT22;34227;51.840;4.146;2023-07-20T03:07:27;17.50;82.90
48416;DHT22;34227;51.840;4.146;2023-07-20T03:09:53;17.40;83.00
48416;DHT22;34227;51.840;4.146;2023-07-20T03:12:19;17.40;83.10
48416;DHT22;34227;51.840;4.146;2023-07-20T03:14:44;17.40;83.20
48416;DHT22;34227;51.840;4.146;2023-07-20T03:17:10;17.30;83.30
48416;DHT22;34227;51.840;4.146;2023-07-20T03:19:35;17.30;83.10
48416;DHT22;34227;51.840;4.146;2023-07-20T03:22:01;17.30;83.30
48416;DHT22;34227;51.840;4.146;2023-07-20T03:24:26;17.30;83.30
48416;DHT22;34227;51.840;4.146;2023-07-20T03:26:52;17.20;83.40
48416;DHT22;34227;51.840;4.146;2023-07-20T03:29:18;17.20;83.20
48416;DHT22;34227;51.840;4.146;2023-07-20T03:31:43;17.20;83.40
48416;DHT22;34227;51.840;4.146;2023-07-20T03:34:09;17.20;83.40
48416;DHT22;34227;51.840;4.146;2023-07-20T03:36:34;17.20;83.50
48416;DHT22;34227;51.840;4.146;2023-07-20T03:39:00;17.10;83.50
48416;DHT22;34227;51.840;4.146;2023-07-20T03:41:26;17.10;83.50
48416;DHT22;34227;51.840;4.146;2023-07-20T03:43:51;17.10;83.60
48416;DHT22;34227;51.840;4.146;2023-07-20T03:46:17;17.10;83.50
48416;DHT22;34227;51.840;4.146;2023-07-20T03:48:42;17.10;83.50
48416;DHT22;34227;51.840;4.146;2023-07-20T03:51:08;17.00;83.60
48416;DHT22;34227;51.840;4.146;2023-07-20T03:53:33;17.10;84.50
48416;DHT22;34227;51.840;4.146;2023-07-20T03:55:59;17.00;83.60
48416;DHT22;34227;51.840;4.146;2023-07-20T03:58:24;17.00;83.60
48416;DHT22;34227;51.840;4.146;2023-07-20T04:00:51;17.00;83.70
48416;DHT22;34227;51.840;4.146;2023-07-20T04:03:17;17.00;83.70
48416;DHT22;34227;51.840;4.146;2023-07-20T04:05:43;17.00;83.80
48416;DHT22;34227;51.840;4.146;2023-07-20T04:08:08;17.00;83.90
48416;DHT22;34227;51.840;4.146;2023-07-20T04:10:34;16.90;83.70
48416;DHT22;34227;51.840;4.146;2023-07-20T04:13:00;16.90;83.80
48416;DHT22;34227;51.840;4.146;2023-07-20T04:15:26;16.90;83.80
48416;DHT22;34227;51.840;4.146;2023-07-20T04:17:51;16.90;83.80
48416;DHT22;34227;51.840;4.146;2023-07-20T04:20:17;16.90;83.80
48416;DHT22;34227;51.840;4.146;2023-07-20T04:22:43;16.80;83.80
48416;DHT22;34227;51.840;4.146;2023-07-20T04:25:09;16.80;83.70
48416;DHT22;34227;51.840;4.146;2023-07-20T04:27:35;16.80;83.80
48416;DHT22;34227;51.840;4.146;2023-07-20T04:30:01;16.80;83.70
48416;DHT22;34227;51.840;4.146;2023-07-20T04:32:27;16.80;83.70
48416;DHT22;34227;51.840;4.146;2023-07-20T04:34:52;16.80;83.80
48416;DHT22;34227;51.840;4.146;2023-07-20T04:37:18;16.80;83.60
48416;DHT22;34227;51.840;4.146;2023-07-20T04:39:44;16.80;83.50
48416;DHT22;34227;51.840;4.146;2023-07-20T04:42:09;16.80;83.40
48416;DHT22;34227;51.840;4.146;2023-07-20T04:44:35;16.90;83.40
48416;DHT22;34227;51.840;4.146;2023-07-20T04:47:00;16.80;83.40
48416;DHT22;34227;51.840;4.146;2023-07-20T04:49:26;16.80;83.40
48416;DHT22;34227;51.840;4.146;2023-07-20T04:51:56;16.90;83.20
48416;DHT22;34227;51.840;4.146;2023-07-20T04:54:22;16.90;83.10
48416;DHT22;34227;51.840;4.146;2023-07-20T04:56:47;16.90;83.20
48416;DHT22;34227;51.840;4.146;2023-07-20T04:59:13;16.90;82.90
48416;DHT22;34227;51.840;4.146;2023-07-20T05:01:38;16.90;83.00
48416;DHT22;34227;51.840;4.146;2023-07-20T05:04:05;17.00;83.10
48416;DHT22;34227;51.840;4.146;2023-07-20T05:06:30;16.90;83.00
48416;DHT22;34227;51.840;4.146;2023-07-20T05:08:56;16.90;83.00
48416;DHT22;34227;51.840;4.146;2023-07-20T05:11:21;17.00;83.10
48416;DHT22;34227;51.840;4.146;2023-07-20T05:13:47;16.90;82.90
48416;DHT22;34227;51.840;4.146;2023-07-20T05:16:12;17.00;83.00
48416;DHT22;34227;51.840;4.146;2023-07-20T05:18:40;17.00;83.00
48416;DHT22;34227;51.840;4.146;2023-07-20T05:21:05;16.90;82.80
48416;DHT22;34227;51.840;4.146;2023-07-20T05:23:31;17.00;82.80
48416;DHT22;34227;51.840;4.146;2023-07-20T05:25:57;17.00;82.80
48416;DHT22;34227;51.840;4.146;2023-07-20T05:28:26;16.90;82.70
48416;DHT22;34227;51.840;4.146;2023-07-20T05:30:52;17.00;82.90
48416;DHT22;34227;51.840;4.146;2023-07-20T05:33:21;16.90;83.00
48416;DHT22;34227;51.840;4.146;2023-07-20T05:35:47;17.00;83.10
48416;DHT22;34227;51.840;4.146;2023-07-20T05:38:13;17.00;83.10
48416;DHT22;34227;51.840;4.146;2023-07-20T05:40:42;17.00;83.80
48416;DHT22;34227;51.840;4.146;2023-07-20T05:43:08;17.00;84.00
48416;DHT22;34227;51.840;4.146;2023-07-20T05:45:33;17.00;84.10
48416;DHT22;34227;51.840;4.146;2023-07-20T05:47:59;17.00;84.20
48416;DHT22;34227;51.840;4.146;2023-07-20T05:50:25;17.00;84.00
48416;DHT22;34227;51.840;4.146;2023-07-20T05:52:53;17.10;84.60
48416;DHT22;34227;51.840;4.146;2023-07-20T05:55:19;17.10;84.10
48416;DHT22;34227;51.840;4.146;2023-07-20T05:57:44;17.10;83.90
48416;DHT22;34227;51.840;4.146;2023-07-20T06:00:10;17.20;83.80
48416;DHT22;34227;51.840;4.146;2023-07-20T06:02:37;17.20;83.90
48416;DHT22;34227;51.840;4.146;2023-07-20T06:05:03;17.20;83.60
48416;DHT22;34227;51.840;4.146;2023-07-20T06:07:28;17.30;83.60
48416;DHT22;34227;51.840;4.146;2023-07-20T06:09:54;17.40;83.40
48416;DHT22;34227;51.840;4.146;2023-07-20T06:12:20;17.50;83.40
48416;DHT22;34227;51.840;4.146;2023-07-20T06:14:45;17.70;83.10
48416;DHT22;34227;51.840;4.146;2023-07-20T06:17:11;17.90;83.10
48416;DHT22;34227;51.840;4.146;2023-07-20T06:19:37;18.10;83.50
48416;DHT22;34227;51.840;4.146;2023-07-20T06:22:03;18.40;83.80
48416;DHT22;34227;51.840;4.146;2023-07-20T06:24:28;18.70;83.60
48416;DHT22;34227;51.840;4.146;2023-07-20T06:26:54;19.10;83.60
48416;DHT22;34227;51.840;4.146;2023-07-20T06:29:19;19.50;83.30
48416;DHT22;34227;51.840;4.146;2023-07-20T06:31:45;19.90;83.10
48416;DHT22;34227;51.840;4.146;2023-07-20T06:34:10;20.30;83.50
48416;DHT22;34227;51.840;4.146;2023-07-20T06:36:36;20.70;82.50
48416;DHT22;34227;51.840;4.146;2023-07-20T06:39:02;21.00;81.90
48416;DHT22;34227;51.840;4.146;2023-07-20T06:41:28;21.40;81.60
48416;DHT22;34227;51.840;4.146;2023-07-20T06:43:53;21.80;81.00
48416;DHT22;34227;51.840;4.146;2023-07-20T06:46:26;22.20;80.60
48416;DHT22;34227;51.840;4.146;2023-07-20T06:48:51;22.60;80.40
48416;DHT22;34227;51.840;4.146;2023-07-20T06:51:17;22.90;80.00
48416;DHT22;34227;51.840;4.146;2023-07-20T06:53:43;23.30;79.10
48416;DHT22;34227;51.840;4.146;2023-07-20T06:56:08;23.60;78.90
48416;DHT22;34227;51.840;4.146;2023-07-20T06:58:34;23.90;77.90
48416;DHT22;34227;51.840;4.146;2023-07-20T07:01:04;24.20;77.60
48416;DHT22;34227;51.840;4.146;2023-07-20T07:03:29;24.50;76.90
48416;DHT22;34227;51.840;4.146;2023-07-20T07:05:55;24.80;76.10
48416;DHT22;34227;51.840;4.146;2023-07-20T07:08:21;25.10;76.40
48416;DHT22;34227;51.840;4.146;2023-07-20T07:10:47;25.40;75.90
48416;DHT22;34227;51.840;4.146;2023-07-20T07:13:12;25.60;75.80
48416;DHT22;34227;51.840;4.146;2023-07-20T07:15:38;25.90;75.10
48416;DHT22;34227;51.840;4.146;2023-07-20T07:18:03;26.10;74.60
48416;DHT22;34227;51.840;4.146;2023-07-20T07:20:29;26.40;74.20
48416;DHT22;34227;51.840;4.146;2023-07-20T07:22:55;26.70;74.00
48416;DHT22;34227;51.840;4.146;2023-07-20T07:25:21;26.90;73.80
48416;DHT22;34227;51.840;4.146;2023-07-20T07:27:46;27.20;72.20
48416;DHT22;34227;51.840;4.146;2023-07-20T07:30:12;27.50;72.30
48416;DHT22;34227;51.840;4.146;2023-07-20T07:32:37;27.70;70.50
48416;DHT22;34227;51.840;4.146;2023-07-20T07:35:03;28.00;69.40
48416;DHT22;34227;51.840;4.146;2023-07-20T07:37:29;28.10;68.30
48416;DHT22;34227;51.840;4.146;2023-07-20T07:39:55;28.30;67.70
48416;DHT22;34227;51.840;4.146;2023-07-20T07:42:20;28.50;67.70
48416;DHT22;34227;51.840;4.146;2023-07-20T07:44:46;28.60;67.30
48416;DHT22;34227;51.840;4.146;2023-07-20T07:47:11;28.80;67.20
48416;DHT22;34227;51.840;4.146;2023-07-20T07:49:37;28.90;66.70
48416;DHT22;34227;51.840;4.146;2023-07-20T07:52:03;29.10;65.90
48416;DHT22;34227;51.840;4.146;2023-07-20T07:54:29;29.20;65.50
48416;DHT22;34227;51.840;4.146;2023-07-20T07:56:54;29.40;63.90
48416;DHT22;34227;51.840;4.146;2023-07-20T07:59:20;29.60;63.60
48416;DHT22;34227;51.840;4.146;2023-07-20T08:01:45;29.70;63.90
48416;DHT22;34227;51.840;4.146;2023-07-20T08:04:11;29.80;63.50
48416;DHT22;34227;51.840;4.146;2023-07-20T08:06:37;29.80;62.40
48416;DHT22;34227;51.840;4.146;2023-07-20T08:09:02;29.80;62.80
48416;DHT22;34227;51.840;4.146;2023-07-20T08:11:28;29.90;62.30
48416;DHT22;34227;51.840;4.146;2023-07-20T08:13:56;29.90;61.90
48416;DHT22;34227;51.840;4.146;2023-07-20T08:16:21;30.10;60.70
48416;DHT22;34227;51.840;4.146;2023-07-20T08:18:47;30.10;60.60
48416;DHT22;34227;51.840;4.146;2023-07-20T08:21:12;30.10;59.80
48416;DHT22;34227;51.840;4.146;2023-07-20T08:23:38;30.00;59.90
48416;DHT22;34227;51.840;4.146;2023-07-20T08:26:04;29.90;59.60
48416;DHT22;34227;51.840;4.146;2023-07-20T08:28:29;29.70;59.30
48416;DHT22;34227;51.840;4.146;2023-07-20T08:30:55;29.70;59.30
48416;DHT22;34227;51.840;4.146;2023-07-20T08:33:20;29.60;59.50
48416;DHT22;34227;51.840;4.146;2023-07-20T08:35:46;29.70;60.20
48416;DHT22;34227;51.840;4.146;2023-07-20T08:38:11;29.80;61.40
48416;DHT22;34227;51.840;4.146;2023-07-20T08:40:41;30.10;61.50
48416;DHT22;34227;51.840;4.146;2023-07-20T08:43:07;30.40;60.60
48416;DHT22;34227;51.840;4.146;2023-07-20T08:45:33;30.60;58.90
48416;DHT22;34227;51.840;4.146;2023-07-20T08:48:00;30.90;58.50
48416;DHT22;34227;51.840;4.146;2023-07-20T08:50:27;31.20;58.30
48416;DHT22;34227;51.840;4.146;2023-07-20T08:52:54;31.40;57.10
48416;DHT22;34227;51.840;4.146;2023-07-20T08:55:20;31.60;56.80
48416;DHT22;34227;51.840;4.146;2023-07-20T08:57:48;31.80;57.00
48416;DHT22;34227;51.840;4.146;2023-07-20T09:00:15;31.80;56.90
48416;DHT22;34227;51.840;4.146;2023-07-20T09:02:42;31.80;57.30
48416;DHT22;34227;51.840;4.146;2023-07-20T09:05:10;31.80;56.80
48416;DHT22;34227;51.840;4.146;2023-07-20T09:07:42;31.90;56.40
48416;DHT22;34227;51.840;4.146;2023-07-20T09:10:07;32.10;56.40
48416;DHT22;34227;51.840;4.146;2023-07-20T09:12:37;32.40;55.80
48416;DHT22;34227;51.840;4.146;2023-07-20T09:15:03;32.60;56.70
48416;DHT22;34227;51.840;4.146;2023-07-20T09:17:32;32.90;54.50
48416;DHT22;34227;51.840;4.146;2023-07-20T09:19:58;33.00;54.50
48416;DHT22;34227;51.840;4.146;2023-07-20T09:22:30;33.10;53.90
48416;DHT22;34227;51.840;4.146;2023-07-20T09:24:56;33.10;53.40
48416;DHT22;34227;51.840;4.146;2023-07-20T09:27:22;33.00;53.20
48416;DHT22;34227;51.840;4.146;2023-07-20T09:29:51;32.90;52.90
48416;DHT22;34227;51.840;4.146;2023-07-20T09:32:21;32.90;53.10
48416;DHT22;34227;51.840;4.146;2023-07-20T09:34:46;32.80;52.10
48416;DHT22;34227;51.840;4.146;2023-07-20T09:37:12;32.70;51.50
48416;DHT22;34227;51.840;4.146;2023-07-20T09:39:45;32.60;51.20
48416;DHT22;34227;51.840;4.146;2023-07-20T09:42:14;32.40;51.10
48416;DHT22;34227;51.840;4.146;2023-07-20T09:44:40;32.30;51.60
48416;DHT22;34227;51.840;4.146;2023-07-20T09:47:06;32.10;51.50
48416;DHT22;34227;51.840;4.146;2023-07-20T09:49:32;32.00;51.60
48416;DHT22;34227;51.840;4.146;2023-07-20T09:51:57;31.80;51.40
48416;DHT22;34227;51.840;4.146;2023-07-20T09:54:24;31.70;51.60
48416;DHT22;34227;51.840;4.146;2023-07-20T09:56:50;31.60;51.90
48416;DHT22;34227;51.840;4.146;2023-07-20T09:59:16;31.50;51.90
48416;DHT22;34227;51.840;4.146;2023-07-20T10:01:41;31.50;52.50
48416;DHT22;34227;51.840;4.146;2023-07-20T10:04:08;31.50;52.50
48416;DHT22;34227;51.840;4.146;2023-07-20T10:06:34;31.70;52.70
48416;DHT22;34227;51.840;4.146;2023-07-20T10:09:02;31.70;52.30
48416;DHT22;34227;51.840;4.146;2023-07-20T10:11:32;31.80;51.90
48416;DHT22;34227;51.840;4.146;2023-07-20T10:14:00;31.90;52.00
48416;DHT22;34227;51.840;4.146;2023-07-20T10:16:36;31.80;52.00
48416;DHT22;34227;51.840;4.146;2023-07-20T10:19:11;31.90;51.90
48416;DHT22;34227;51.840;4.146;2023-07-20T10:21:39;32.00;51.80
48416;DHT22;34227;51.840;4.146;2023-07-20T10:24:05;32.10;51.30
48416;DHT22;34227;51.840;4.146;2023-07-20T10:26:32;32.10;50.80
48416;DHT22;34227;51.840;4.146;2023-07-20T10:28:58;32.10;50.40
48416;DHT22;34227;51.840;4.146;2023-07-20T10:31:24;32.10;50.20
48416;DHT22;34227;51.840;4.146;2023-07-20T10:33:50;32.00;50.00
48416;DHT22;34227;51.840;4.146;2023-07-20T10:36:21;31.90;50.00
48416;DHT22;34227;51.840;4.146;2023-07-20T10:38:53;31.90;49.50
48416;DHT22;34227;51.840;4.146;2023-07-20T10:43:45;31.70;49.30
48416;DHT22;34227;51.840;4.146;2023-07-20T10:46:11;31.60;49.60
48416;DHT22;34227;51.840;4.146;2023-07-20T10:51:22;31.40;49.80
48416;DHT22;34227;51.840;4.146;2023-07-20T10:53:50;31.30;49.70
48416;DHT22;34227;51.840;4.146;2023-07-20T10:56:22;31.20;50.20
48416;DHT22;34227;51.840;4.146;2023-07-20T10:58:47;31.10;50.30
48416;DHT22;34227;51.840;4.146;2023-07-20T11:01:14;31.10;50.50
48416;DHT22;34227;51.840;4.146;2023-07-20T11:03:39;31.00;50.80
48416;DHT22;34227;51.840;4.146;2023-07-20T11:08:57;31.10;50.80
48416;DHT22;34227;51.840;4.146;2023-07-20T11:11:29;31.10;50.70
48416;DHT22;34227;51.840;4.146;2023-07-20T11:16:32;31.10;50.20
48416;DHT22;34227;51.840;4.146;2023-07-20T11:18:58;31.20;50.20
48416;DHT22;34227;51.840;4.146;2023-07-20T11:21:24;31.20;49.80
48416;DHT22;34227;51.840;4.146;2023-07-20T11:23:50;31.20;49.90
48416;DHT22;34227;51.840;4.146;2023-07-20T11:26:17;31.30;49.40
48416;DHT22;34227;51.840;4.146;2023-07-20T11:28:43;31.30;49.80
48416;DHT22;34227;51.840;4.146;2023-07-20T11:31:09;31.20;49.20
48416;DHT22;34227;51.840;4.146;2023-07-20T11:33:34;31.20;49.10
48416;DHT22;34227;51.840;4.146;2023-07-20T11:36:00;31.30;49.20
48416;DHT22;34227;51.840;4.146;2023-07-20T11:38:28;31.30;49.50
48416;DHT22;34227;51.840;4.146;2023-07-20T11:40:54;31.30;49.60
48416;DHT22;34227;51.840;4.146;2023-07-20T11:43:19;31.20;49.50
48416;DHT22;34227;51.840;4.146;2023-07-20T11:45:48;31.20;49.50
48416;DHT22;34227;51.840;4.146;2023-07-20T11:48:14;31.20;50.30
48416;DHT22;34227;51.840;4.146;2023-07-20T11:50:40;31.20;49.90
48416;DHT22;34227;51.840;4.146;2023-07-20T11:53:05;31.20;50.10
48416;DHT22;34227;51.840;4.146;2023-07-20T11:55:31;31.10;50.60
48416;DHT22;34227;51.840;4.146;2023-07-20T11:58:04;31.10;50.20
48416;DHT22;34227;51.840;4.146;2023-07-20T12:00:30;31.00;50.20
48416;DHT22;34227;51.840;4.146;2023-07-20T12:02:55;31.00;50.30
48416;DHT22;34227;51.840;4.146;2023-07-20T12:05:24;30.90;50.10
48416;DHT22;34227;51.840;4.146;2023-07-20T12:07:50;30.90;50.10
48416;DHT22;34227;51.840;4.146;2023-07-20T12:10:23;30.80;50.20
48416;DHT22;34227;51.840;4.146;2023-07-20T12:12:49;30.70;50.50
48416;DHT22;34227;51.840;4.146;2023-07-20T12:15:22;30.70;50.50
48416;DHT22;34227;51.840;4.146;2023-07-20T12:17:51;30.60;50.70
48416;DHT22;34227;51.840;4.146;2023-07-20T12:22:52;30.40;50.80
48416;DHT22;34227;51.840;4.146;2023-07-20T12:25:19;30.40;50.80
48416;DHT22;34227;51.840;4.146;2023-07-20T12:27:46;30.30;50.90
48416;DHT22;34227;51.840;4.146;2023-07-20T12:30:13;30.20;50.70
48416;DHT22;34227;51.840;4.146;2023-07-20T12:32:42;30.20;50.70
48416;DHT22;34227;51.840;4.146;2023-07-20T12:35:07;30.10;50.60
48416;DHT22;34227;51.840;4.146;2023-07-20T12:37:33;30.10;51.00
48416;DHT22;34227;51.840;4.146;2023-07-20T12:39:59;30.00;51.10
48416;DHT22;34227;51.840;4.146;2023-07-20T12:42:24;30.00;51.10
48416;DHT22;34227;51.840;4.146;2023-07-20T12:44:50;29.90;51.20
48416;DHT22;34227;51.840;4.146;2023-07-20T12:47:16;29.90;50.90
48416;DHT22;34227;51.840;4.146;2023-07-20T12:49:42;29.90;50.90
48416;DHT22;34227;51.840;4.146;2023-07-20T12:52:10;29.90;51.10
48416;DHT22;34227;51.840;4.146;2023-07-20T12:54:36;29.80;51.30
48416;DHT22;34227;51.840;4.146;2023-07-20T12:57:02;29.80;51.50
48416;DHT22;34227;51.840;4.146;2023-07-20T12:59:28;29.70;51.20
48416;DHT22;34227;51.840;4.146;2023-07-20T13:01:54;29.70;51.20
48416;DHT22;34227;51.840;4.146;2023-07-20T13:04:20;29.60;51.10
48416;DHT22;34227;51.840;4.146;2023-07-20T13:06:45;29.60;51.40
48416;DHT22;34227;51.840;4.146;2023-07-20T13:09:11;29.50;51.00
48416;DHT22;34227;51.840;4.146;2023-07-20T13:11:36;29.50;51.70
48416;DHT22;34227;51.840;4.146;2023-07-20T13:14:02;29.40;51.20
48416;DHT22;34227;51.840;4.146;2023-07-20T13:16:27;29.40;51.00
48416;DHT22;34227;51.840;4.146;2023-07-20T13:18:55;29.40;51.00
48416;DHT22;34227;51.840;4.146;2023-07-20T13:21:21;29.30;51.10
48416;DHT22;34227;51.840;4.146;2023-07-20T13:23:48;29.30;50.90
48416;DHT22;34227;51.840;4.146;2023-07-20T13:26:14;29.30;51.00
48416;DHT22;34227;51.840;4.146;2023-07-20T13:28:40;29.30;51.00
48416;DHT22;34227;51.840;4.146;2023-07-20T13:31:05;29.30;50.90
48416;DHT22;34227;51.840;4.146;2023-07-20T13:33:31;29.20;50.80
48416;DHT22;34227;51.840;4.146;2023-07-20T13:35:56;29.30;50.70
48416;DHT22;34227;51.840;4.146;2023-07-20T13:38:22;29.30;50.60
48416;DHT22;34227;51.840;4.146;2023-07-20T13:40:47;29.30;50.50
48416;DHT22;34227;51.840;4.146;2023-07-20T13:43:13;29.30;50.60
48416;DHT22;34227;51.840;4.146;2023-07-20T13:45:38;29.30;50.20
48416;DHT22;34227;51.840;4.146;2023-07-20T13:48:04;29.40;50.70
48416;DHT22;34227;51.840;4.146;2023-07-20T13:50:30;29.40;50.50
48416;DHT22;34227;51.840;4.146;2023-07-20T13:52:55;29.40;50.30
48416;DHT22;34227;51.840;4.146;2023-07-20T13:55:21;29.50;50.40
48416;DHT22;34227;51.840;4.146;2023-07-20T13:57:47;29.40;50.40
48416;DHT22;34227;51.840;4.146;2023-07-20T14:00:13;29.50;50.00
48416;DHT22;34227;51.840;4.146;2023-07-20T14:02:38;29.60;50.20
48416;DHT22;34227;51.840;4.146;2023-07-20T14:05:04;29.60;50.20
48416;DHT22;34227;51.840;4.146;2023-07-20T14:07:30;29.60;50.10
48416;DHT22;34227;51.840;4.146;2023-07-20T14:09:55;29.60;50.90
48416;DHT22;34227;51.840;4.146;2023-07-20T14:12:21;29.60;50.10
48416;DHT22;34227;51.840;4.146;2023-07-20T14:14:47;29.60;49.50
48416;DHT22;34227;51.840;4.146;2023-07-20T14:17:12;29.60;50.00
48416;DHT22;34227;51.840;4.146;2023-07-20T14:19:38;29.70;50.00
48416;DHT22;34227;51.840;4.146;2023-07-20T14:22:04;29.70;49.80
48416;DHT22;34227;51.840;4.146;2023-07-20T14:24:30;29.70;50.00
48416;DHT22;34227;51.840;4.146;2023-07-20T14:26:55;29.70;49.80
48416;DHT22;34227;51.840;4.146;2023-07-20T14:29:21;29.70;49.90
48416;DHT22;34227;51.840;4.146;2023-07-20T14:31:46;29.70;49.60
48416;DHT22;34227;51.840;4.146;2023-07-20T14:34:18;29.70;49.80
48416;DHT22;34227;51.840;4.146;2023-07-20T16:34:02;27.70;50.50
48416;DHT22;34227;51.840;4.146;2023-07-20T16:36:28;27.60;50.90
48416;DHT22;34227;51.840;4.146;2023-07-20T16:38:54;27.60;51.60
48416;DHT22;34227;51.840;4.146;2023-07-20T16:41:23;27.50;51.00
48416;DHT22;34227;51.840;4.146;2023-07-20T16:43:51;27.50;51.20
48416;DHT22;34227;51.840;4.146;2023-07-20T16:46:17;27.40;51.30
48416;DHT22;34227;51.840;4.146;2023-07-20T16:48:46;27.30;51.40
48416;DHT22;34227;51.840;4.146;2023-07-20T16:51:12;27.20;51.50
48416;DHT22;34227;51.840;4.146;2023-07-20T16:53:37;27.10;51.60
48416;DHT22;34227;51.840;4.146;2023-07-20T16:56:06;27.10;52.30
48416;DHT22;34227;51.840;4.146;2023-07-20T17:01:27;26.90;51.90
48416;DHT22;34227;51.840;4.146;2023-07-20T17:03:58;26.80;51.90
48416;DHT22;34227;51.840;4.146;2023-07-20T17:06:24;26.70;52.10
48416;DHT22;34227;51.840;4.146;2023-07-20T17:08:49;26.60;52.20
48416;DHT22;34227;51.840;4.146;2023-07-20T17:11:15;26.50;52.30
48416;DHT22;34227;51.840;4.146;2023-07-20T17:13:48;26.40;52.30
48416;DHT22;34227;51.840;4.146;2023-07-20T17:16:14;26.30;52.40
48416;DHT22;34227;51.840;4.146;2023-07-20T17:18:39;26.20;52.60
48416;DHT22;34227;51.840;4.146;2023-07-20T17:21:05;26.10;52.80
48416;DHT22;34227;51.840;4.146;2023-07-20T17:23:31;26.00;52.70
48416;DHT22;34227;51.840;4.146;2023-07-20T17:25:57;25.90;52.90
48416;DHT22;34227;51.840;4.146;2023-07-20T17:28:22;25.80;53.00
48416;DHT22;34227;51.840;4.146;2023-07-20T17:30:56;25.70;53.10
48416;DHT22;34227;51.840;4.146;2023-07-20T17:33:21;25.70;53.10
48416;DHT22;34227;51.840;4.146;2023-07-20T17:35:47;25.60;53.20
48416;DHT22;34227;51.840;4.146;2023-07-20T17:38:13;25.50;53.30
48416;DHT22;34227;51.840;4.146;2023-07-20T17:40:38;25.50;53.30
48416;DHT22;34227;51.840;4.146;2023-07-20T17:43:04;25.40;53.40
48416;DHT22;34227;51.840;4.146;2023-07-20T17:45:29;25.40;53.40